Time;durP1;ratioP1;P1;durP2;ratioP2;P2;SDS_P1;SDS_P2;PMS_P1;PMS_P2;Temp;Humidity;BMP_temperature;BMP_pressure;BME280_temperature;BME280_humidity;BME280_pressure;Samples;Min_cycle;Max_cycle;Signal;HPM_P1;HPM_P2
2023/05/23 00:02:07;;;;;;;4.53;2.35;;;;;;;;;;4995647;28;20233;-38
2023/05/23 00:04:37;;;;;;;2.50;1.88;;;;;;;;;;4995726;28;20198;-39
2023/05/23 00:07:04;;;;;;;2.47;2.05;;;;;;;;;;4996158;28;20210;-38
2023/05/23 00:09:31;;;;;;;3.30;1.65;;;;;;;;;;4995213;28;20236;-38
2023/05/23 00:11:59;;;;;;;3.65;2.10;;;;;;;;;;4994837;28;20209;-38
2023/05/23 00:14:30;;;;;;;3.03;2.20;;;;;;;;;;4995422;28;20206;-38
2023/05/23 00:16:58;;;;;;;2.08;1.77;;;;;;;;;;4995686;28;20186;-38
2023/05/23 00:19:25;;;;;;;3.38;2.22;;;;;;;;;;4995298;28;20667;-38
2023/05/23 00:21:55;;;;;;;3.35;1.73;;;;;;;;;;4995488;28;20230;-38
2023/05/23 00:24:23;;;;;;;7.22;2.53;;;;;;;;;;4995805;28;20206;-39
2023/05/23 00:26:50;;;;;;;4.47;1.92;;;;;;;;;;4995112;28;20268;-38
2023/05/23 00:29:18;;;;;;;2.15;1.83;;;;;;;;;;4995628;28;20209;-38
2023/05/23 00:31:45;;;;;;;2.53;2.10;;;;;;;;;;4995322;28;20213;-38
2023/05/23 00:34:14;;;;;;;3.00;1.77;;;;;;;;;;4995374;28;20212;-38
2023/05/23 00:36:42;;;;;;;3.17;2.10;;;;;;;;;;4977884;28;20543;-38
2023/05/23 00:39:17;;;;;;;3.58;2.28;;;;;;;;;;4994877;28;20252;-38
2023/05/23 00:41:50;;;;;;;2.53;1.77;;;;;;;;;;4963093;28;20214;-39
2023/05/23 00:44:20;;;;;;;5.13;2.17;;;;;;;;;;4994836;28;20261;-38
2023/05/23 00:46:54;;;;;;;2.95;1.92;;;;;;;;;;4977549;28;20205;-38
2023/05/23 00:49:21;;;;;;;3.00;2.28;;;;;;;;;;4994829;28;20293;-38
2023/05/23 00:51:50;;;;;;;3.00;2.22;;;;;;;;;;4977906;28;20329;-38
2023/05/23 00:54:20;;;;;;;5.10;2.10;;;;;;;;;;4977753;28;20266;-38
2023/05/23 00:56:48;;;;;;;2.55;2.33;;;;;;;;;;4977749;28;20217;-38
2023/05/23 00:59:16;;;;;;;2.53;2.03;;;;;;;;;;4994563;28;20234;-38
2023/05/23 01:02:01;;;;;;;2.72;2.08;;;;;;;;;;4994498;28;20729;-38
2023/05/23 01:04:53;;;;;;;2.47;2.10;;;;;;;;;;4994860;28;20260;-38
2023/05/23 01:07:21;;;;;;;2.53;2.15;;;;;;;;;;4994619;28;20185;-38
2023/05/23 01:09:48;;;;;;;4.15;2.22;;;;;;;;;;4994634;28;20209;-38
2023/05/23 01:12:18;;;;;;;2.35;2.08;;;;;;;;;;4994814;28;20217;-38
2023/05/23 01:15:08;;;;;;;2.47;1.85;;;;;;;;;;4994286;28;20256;-38
2023/05/23 01:18:13;;;;;;;3.22;2.00;;;;;;;;;;4977197;28;20337;-40
2023/05/23 01:20:49;;;;;;;4.70;2.28;;;;;;;;;;4977588;28;20225;-38
2023/05/23 01:23:54;;;;;;;4.80;2.25;;;;;;;;;;4977067;28;20606;-38
2023/05/23 01:26:33;;;;;;;3.13;2.10;;;;;;;;;;4994290;28;20677;-38
2023/05/23 01:29:09;;;;;;;3.75;2.03;;;;;;;;;;4961681;28;20202;-38
2023/05/23 01:31:41;;;;;;;2.50;1.63;;;;;;;;;;4994141;28;20574;-38
2023/05/23 01:34:09;;;;;;;4.50;2.15;;;;;;;;;;4977451;28;20191;-38
2023/05/23 01:36:40;;;;;;;4.50;1.90;;;;;;;;;;4977263;28;20202;-38
2023/05/23 01:39:09;;;;;;;2.28;1.60;;;;;;;;;;4977150;28;20210;-38
2023/05/23 01:41:36;;;;;;;2.95;2.10;;;;;;;;;;4976888;28;20230;-39
2023/05/23 01:44:05;;;;;;;3.78;2.50;;;;;;;;;;4994061;28;20213;-38
2023/05/23 01:46:33;;;;;;;3.53;2.25;;;;;;;;;;4976841;28;20233;-38
2023/05/23 01:49:02;;;;;;;2.80;2.08;;;;;;;;;;4994082;28;20543;-38
2023/05/23 01:51:32;;;;;;;4.38;2.30;;;;;;;;;;4977495;28;20198;-38
2023/05/23 01:54:00;;;;;;;2.45;2.00;;;;;;;;;;4960496;28;20210;-39
2023/05/23 01:56:29;;;;;;;3.75;2.10;;;;;;;;;;4993588;28;20260;-38
2023/05/23 01:58:56;;;;;;;2.28;2.00;;;;;;;;;;4976635;28;20221;-38
2023/05/23 02:01:24;;;;;;;2.60;1.85;;;;;;;;;;4976211;28;20225;-38
2023/05/23 02:03:51;;;;;;;3.38;2.53;;;;;;;;;;4960592;28;20272;-38
2023/05/23 02:06:18;;;;;;;3.67;2.38;;;;;;;;;;4976318;28;20209;-38
2023/05/23 02:08:46;;;;;;;4.70;2.60;;;;;;;;;;4976219;28;20206;-38
2023/05/23 02:11:13;;;;;;;3.53;2.60;;;;;;;;;;4976576;28;20292;-38
2023/05/23 02:13:40;;;;;;;4.32;2.58;;;;;;;;;;4993292;28;20202;-38
2023/05/23 02:16:07;;;;;;;3.22;2.40;;;;;;;;;;4993759;28;20225;-38
2023/05/23 02:18:36;;;;;;;10.35;2.38;;;;;;;;;;4993877;28;20214;-38
2023/05/23 02:21:04;;;;;;;4.25;2.47;;;;;;;;;;4976095;28;20706;-38
2023/05/23 02:23:32;;;;;;;3.72;2.53;;;;;;;;;;4976032;28;20199;-38
2023/05/23 02:25:59;;;;;;;3.85;2.20;;;;;;;;;;4975992;28;20202;-39
2023/05/23 02:28:26;;;;;;;2.92;2.22;;;;;;;;;;4993056;28;20206;-38
2023/05/23 02:30:53;;;;;;;2.53;2.08;;;;;;;;;;4991887;28;20293;-39
2023/05/23 02:33:21;;;;;;;2.78;1.90;;;;;;;;;;4974472;28;20679;-39
2023/05/23 02:35:50;;;;;;;2.22;2.00;;;;;;;;;;4977869;28;20222;-38
2023/05/23 02:38:19;;;;;;;3.28;2.28;;;;;;;;;;4978098;28;20203;-39
2023/05/23 02:40:46;;;;;;;4.30;2.05;;;;;;;;;;4994968;28;20240;-38
2023/05/23 02:43:14;;;;;;;2.95;2.10;;;;;;;;;;4994964;28;20202;-39
2023/05/23 02:45:41;;;;;;;6.68;2.28;;;;;;;;;;4977783;28;20206;-40
2023/05/23 02:48:10;;;;;;;3.42;2.40;;;;;;;;;;4995441;28;20202;-40
2023/05/23 02:50:37;;;;;;;3.85;2.50;;;;;;;;;;4995466;28;20202;-38
2023/05/23 02:53:05;;;;;;;3.20;2.17;;;;;;;;;;4979694;28;20697;-38
2023/05/23 02:55:32;;;;;;;3.17;2.30;;;;;;;;;;4979819;28;20226;-38
2023/05/23 02:57:59;;;;;;;4.03;2.08;;;;;;;;;;4979445;28;20202;-38
2023/05/23 03:00:26;;;;;;;3.25;2.25;;;;;;;;;;4979592;28;20210;-38
2023/05/23 03:02:56;;;;;;;2.10;1.90;;;;;;;;;;4979462;28;20639;-38
2023/05/23 03:05:23;;;;;;;3.55;2.40;;;;;;;;;;4996594;28;20289;-38
2023/05/23 03:07:53;;;;;;;5.00;2.17;;;;;;;;;;4979619;28;20210;-38
2023/05/23 03:10:20;;;;;;;4.68;2.05;;;;;;;;;;5011845;28;20210;-38
2023/05/23 03:12:47;;;;;;;3.65;2.47;;;;;;;;;;4996728;28;20603;-38
2023/05/23 03:15:16;;;;;;;3.03;2.10;;;;;;;;;;4996652;28;20209;-38
2023/05/23 03:17:44;;;;;;;3.40;2.40;;;;;;;;;;5011589;28;20202;-38
2023/05/23 03:20:14;;;;;;;3.13;2.45;;;;;;;;;;4979268;28;20206;-38
2023/05/23 03:22:44;;;;;;;3.53;2.55;;;;;;;;;;5011643;28;20240;-38
2023/05/23 03:25:11;;;;;;;5.32;2.65;;;;;;;;;;4979112;28;20234;-38
2023/05/23 03:27:39;;;;;;;4.47;2.50;;;;;;;;;;4996570;28;20210;-38
2023/05/23 03:30:06;;;;;;;5.13;2.75;;;;;;;;;;4978311;28;20209;-39
2023/05/23 03:32:34;;;;;;;3.92;3.10;;;;;;;;;;4978732;28;20214;-39
2023/05/23 03:35:02;;;;;;;4.10;2.83;;;;;;;;;;4979327;28;20206;-40
2023/05/23 03:37:29;;;;;;;2.92;2.58;;;;;;;;;;4978998;28;20210;-38
2023/05/23 03:39:56;;;;;;;3.78;2.55;;;;;;;;;;4996238;28;20760;-38
2023/05/23 03:42:23;;;;;;;2.92;2.63;;;;;;;;;;4978904;28;20226;-38
2023/05/23 03:44:51;;;;;;;6.03;3.15;;;;;;;;;;4978414;28;20206;-38
2023/05/23 03:47:22;;;;;;;5.07;2.83;;;;;;;;;;4978875;28;20205;-38
2023/05/23 03:49:51;;;;;;;5.38;3.40;;;;;;;;;;4978531;28;20217;-38
2023/05/23 03:52:18;;;;;;;4.60;3.03;;;;;;;;;;4995917;28;20687;-38
2023/05/23 03:54:45;;;;;;;4.97;3.45;;;;;;;;;;4978433;28;20717;-38
2023/05/23 03:57:12;;;;;;;4.68;3.30;;;;;;;;;;4994263;28;20268;-39
2023/05/23 03:59:40;;;;;;;9.52;3.20;;;;;;;;;;4988006;28;20703;-38
2023/05/23 04:02:10;;;;;;;4.60;3.15;;;;;;;;;;4977593;28;20241;-38
2023/05/23 04:04:38;;;;;;;5.60;3.35;;;;;;;;;;4977583;28;20245;-38
2023/05/23 04:07:08;;;;;;;3.83;3.00;;;;;;;;;;4977202;28;20682;-38
2023/05/23 04:09:35;;;;;;;4.80;3.58;;;;;;;;;;4977416;28;20314;-38
2023/05/23 04:12:08;;;;;;;4.57;3.45;;;;;;;;;;4977714;28;20595;-38
2023/05/23 04:14:36;;;;;;;3.63;3.03;;;;;;;;;;4976232;28;20222;-39
2023/05/23 04:17:04;;;;;;;5.70;3.67;;;;;;;;;;4977125;28;20218;-38
2023/05/23 04:19:32;;;;;;;6.03;3.40;;;;;;;;;;4979907;28;20222;-38
2023/05/23 04:21:59;;;;;;;4.53;3.33;;;;;;;;;;4977371;28;20288;-39
2023/05/23 04:24:27;;;;;;;4.63;3.13;;;;;;;;;;4977465;28;20276;-38
2023/05/23 04:26:55;;;;;;;4.63;2.88;;;;;;;;;;4977218;28;20219;-38
2023/05/23 04:29:25;;;;;;;4.47;3.00;;;;;;;;;;4976786;28;20222;-38
2023/05/23 04:31:54;;;;;;;5.50;3.58;;;;;;;;;;4977146;28;20290;-39
2023/05/23 04:34:21;;;;;;;4.53;3.17;;;;;;;;;;4978067;28;20552;-38
2023/05/23 04:36:49;;;;;;;3.55;2.97;;;;;;;;;;5009194;28;20221;-38
2023/05/23 04:39:16;;;;;;;5.03;3.30;;;;;;;;;;4985117;28;20572;-38
2023/05/23 04:42:06;;;;;;;5.25;4.03;;;;;;;;;;4982867;28;20238;-43
2023/05/23 04:45:06;;;;;;;4.40;2.78;;;;;;;;;;4966190;28;20472;-38
2023/05/23 04:47:59;;;;;;;3.13;2.78;;;;;;;;;;4956106;28;20224;-39
2023/05/23 04:50:42;;;;;;;4.18;3.00;;;;;;;;;;4938109;28;20822;-41
2023/05/23 04:53:09;;;;;;;3.67;2.65;;;;;;;;;;4930336;29;20207;-39
2023/05/23 04:55:37;;;;;;;3.53;2.50;;;;;;;;;;4943797;28;20265;-39
2023/05/23 04:58:11;;;;;;;3.25;2.30;;;;;;;;;;4945553;28;20750;-39
2023/05/23 05:00:39;;;;;;;5.88;2.47;;;;;;;;;;4943726;28;20740;-40
2023/05/23 05:03:08;;;;;;;2.90;2.60;;;;;;;;;;4946600;28;20710;-39
2023/05/23 05:05:40;;;;;;;4.03;2.60;;;;;;;;;;4945944;28;20203;-39
2023/05/23 05:08:07;;;;;;;2.90;2.40;;;;;;;;;;4944023;28;20196;-39
2023/05/23 05:10:34;;;;;;;4.78;3.20;;;;;;;;;;4937376;29;20200;-38
2023/05/23 05:13:02;;;;;;;3.50;2.50;;;;;;;;;;4946743;28;20202;-39
2023/05/23 05:15:38;;;;;;;3.28;2.08;;;;;;;;;;4953634;28;20191;-39
2023/05/23 05:18:06;;;;;;;2.88;2.20;;;;;;;;;;4962819;28;20225;-39
2023/05/23 05:20:33;;;;;;;3.58;2.08;;;;;;;;;;4953223;28;20198;-40
2023/05/23 05:23:00;;;;;;;4.10;2.40;;;;;;;;;;4990268;28;20222;-39
2023/05/23 05:25:30;;;;;;;3.03;2.30;;;;;;;;;;4968643;28;20233;-40
2023/05/23 05:28:04;;;;;;;3.05;2.13;;;;;;;;;;4965974;28;20191;-40
2023/05/23 05:30:37;;;;;;;4.68;1.90;;;;;;;;;;4965827;28;20204;-39
2023/05/23 05:33:06;;;;;;;3.15;2.13;;;;;;;;;;4990634;28;20205;-40
2023/05/23 05:35:34;;;;;;;4.70;2.33;;;;;;;;;;4968451;28;20202;-41
2023/05/23 05:38:03;;;;;;;3.90;2.40;;;;;;;;;;4967108;28;20201;-40
2023/05/23 05:40:31;;;;;;;3.65;1.85;;;;;;;;;;4982905;28;20596;-42
2023/05/23 05:42:59;;;;;;;3.13;2.08;;;;;;;;;;4966904;28;20589;-39
2023/05/23 05:45:27;;;;;;;3.92;2.15;;;;;;;;;;4967381;28;20195;-39
2023/05/23 05:47:54;;;;;;;3.25;1.90;;;;;;;;;;4966544;28;20200;-39
2023/05/23 05:50:23;;;;;;;3.03;2.03;;;;;;;;;;4966257;28;20194;-40
2023/05/23 05:52:51;;;;;;;3.47;1.70;;;;;;;;;;4984779;28;20206;-39
2023/05/23 05:55:18;;;;;;;3.65;2.00;;;;;;;;;;4966199;28;20241;-40
2023/05/23 05:57:50;;;;;;;2.70;1.90;;;;;;;;;;4965421;28;20230;-40
2023/05/23 06:00:18;;;;;;;3.63;1.88;;;;;;;;;;4982555;28;20686;-40
2023/05/23 06:02:50;;;;;;;2.63;1.95;;;;;;;;;;4984503;28;20227;-40
2023/05/23 06:05:36;;;;;;;2.60;1.73;;;;;;;;;;4990208;28;20233;-39
2023/05/23 06:08:04;;;;;;;2.83;1.80;;;;;;;;;;4974861;28;20202;-39
2023/05/23 06:10:31;;;;;;;3.60;2.08;;;;;;;;;;4997969;28;20198;-39
2023/05/23 06:12:58;;;;;;;2.38;1.55;;;;;;;;;;4979572;28;20202;-39
2023/05/23 06:15:26;;;;;;;5.40;1.85;;;;;;;;;;4980607;28;20252;-40
2023/05/23 06:17:53;;;;;;;2.33;1.70;;;;;;;;;;4997662;28;20206;-40
2023/05/23 06:20:20;;;;;;;2.40;1.70;;;;;;;;;;4980480;28;20205;-39
2023/05/23 06:22:48;;;;;;;2.78;1.65;;;;;;;;;;5012659;28;20241;-39
2023/05/23 06:25:16;;;;;;;1.95;1.45;;;;;;;;;;4980389;28;20272;-39
2023/05/23 06:27:46;;;;;;;2.42;1.95;;;;;;;;;;4976796;28;20210;-41
2023/05/23 06:30:13;;;;;;;2.30;1.65;;;;;;;;;;4988040;28;20202;-41
2023/05/23 06:32:41;;;;;;;2.25;1.60;;;;;;;;;;4979913;28;20573;-42
2023/05/23 06:35:08;;;;;;;3.42;1.55;;;;;;;;;;4979411;28;20671;-41
2023/05/23 06:37:36;;;;;;;3.63;2.42;;;;;;;;;;4979621;28;20198;-42
2023/05/23 06:40:04;;;;;;;1.92;1.73;;;;;;;;;;4979546;28;20560;-42
2023/05/23 06:42:31;;;;;;;3.20;1.55;;;;;;;;;;4979624;28;20236;-41
2023/05/23 06:45:13;;;;;;;2.25;1.70;;;;;;;;;;4950621;28;20510;-41
2023/05/23 06:47:44;;;;;;;1.92;1.42;;;;;;;;;;5002837;28;20199;-42
2023/05/23 06:50:11;;;;;;;3.20;1.63;;;;;;;;;;4988515;28;20198;-41
2023/05/23 06:52:41;;;;;;;2.30;1.70;;;;;;;;;;4989323;28;20214;-42
2023/05/23 06:55:09;;;;;;;2.25;1.58;;;;;;;;;;4988547;28;20233;-42
2023/05/23 06:57:38;;;;;;;2.33;1.80;;;;;;;;;;4987973;28;20197;-41
2023/05/23 07:00:06;;;;;;;2.92;1.70;;;;;;;;;;4989485;28;20659;-40
2023/05/23 07:02:39;;;;;;;2.28;1.58;;;;;;;;;;4986779;28;20600;-41
2023/05/23 07:05:07;;;;;;;4.70;1.55;;;;;;;;;;4989401;28;20281;-42
2023/05/23 07:07:46;;;;;;;3.47;1.70;;;;;;;;;;4988839;28;20188;-41
2023/05/23 07:10:14;;;;;;;2.25;1.90;;;;;;;;;;4987657;28;20552;-42
2023/05/23 07:12:43;;;;;;;1.98;1.70;;;;;;;;;;4985307;28;20217;-43
2023/05/23 07:15:11;;;;;;;2.58;1.88;;;;;;;;;;4987938;28;20194;-41
2023/05/23 07:17:49;;;;;;;2.53;1.48;;;;;;;;;;4984815;28;20206;-42
2023/05/23 07:20:16;;;;;;;5.20;2.00;;;;;;;;;;4986609;28;20200;-41
2023/05/23 07:22:45;;;;;;;2.50;1.60;;;;;;;;;;4981998;28;20694;-42
2023/05/23 07:25:14;;;;;;;1.77;1.25;;;;;;;;;;4988225;28;20245;-44
2023/05/23 07:27:42;;;;;;;2.33;1.50;;;;;;;;;;4983958;28;20221;-41
2023/05/23 07:30:09;;;;;;;1.75;1.40;;;;;;;;;;4977596;28;20691;-41
2023/05/23 07:32:37;;;;;;;2.15;1.65;;;;;;;;;;4965829;28;20729;-40
2023/05/23 07:35:06;;;;;;;6.55;3.03;;;;;;;;;;4977623;28;20280;-41
2023/05/23 07:37:34;;;;;;;1.90;1.70;;;;;;;;;;4992447;28;20226;-46
2023/05/23 07:40:03;;;;;;;3.58;1.80;;;;;;;;;;4967494;28;20789;-45
2023/05/23 07:42:30;;;;;;;1.58;1.30;;;;;;;;;;4958100;28;20245;-46
2023/05/23 07:44:57;;;;;;;1.88;1.52;;;;;;;;;;4976413;28;20230;-45
2023/05/23 07:47:25;;;;;;;1.92;1.42;;;;;;;;;;4975529;28;20586;-45
2023/05/23 07:49:52;;;;;;;3.45;1.35;;;;;;;;;;4975437;28;20227;-45
2023/05/23 07:52:20;;;;;;;3.50;1.70;;;;;;;;;;4957253;28;20311;-46
2023/05/23 07:54:47;;;;;;;2.42;1.38;;;;;;;;;;4980076;28;20602;-45
2023/05/23 07:57:16;;;;;;;1.95;1.48;;;;;;;;;;4986202;28;20279;-48
2023/05/23 07:59:44;;;;;;;2.67;1.45;;;;;;;;;;4977100;28;20280;-46
2023/05/23 08:02:11;;;;;;;2.17;1.25;;;;;;;;;;4980358;28;20225;-45
2023/05/23 08:04:40;;;;;;;2.15;1.50;;;;;;;;;;4946737;28;20305;-45
2023/05/23 08:07:08;;;;;;;3.17;1.20;;;;;;;;;;4992186;28;20217;-44
2023/05/23 08:09:49;;;;;;;1.27;1.10;;;;;;;;;;4976349;28;20573;-45
2023/05/23 08:12:19;;;;;;;3.90;1.40;;;;;;;;;;4996422;28;20241;-45
2023/05/23 08:14:50;;;;;;;3.97;1.30;;;;;;;;;;4979832;28;20226;-46
2023/05/23 08:17:39;;;;;;;3.15;1.50;;;;;;;;;;5011265;28;20268;-46
2023/05/23 08:20:08;;;;;;;1.77;1.25;;;;;;;;;;4975408;28;20230;-46
2023/05/23 08:22:36;;;;;;;2.80;1.25;;;;;;;;;;4975667;28;20242;-46
2023/05/23 08:25:05;;;;;;;1.67;1.27;;;;;;;;;;4976145;28;20226;-45
2023/05/23 08:27:35;;;;;;;1.80;1.20;;;;;;;;;;4976231;28;20240;-45
2023/05/23 08:30:11;;;;;;;2.75;1.65;;;;;;;;;;4976536;28;20230;-46
2023/05/23 08:32:39;;;;;;;1.60;1.23;;;;;;;;;;4975670;28;20257;-46
2023/05/23 08:35:06;;;;;;;2.72;1.77;;;;;;;;;;4976669;28;20748;-45
2023/05/23 08:37:35;;;;;;;1.60;1.20;;;;;;;;;;4976091;28;20226;-45
2023/05/23 08:40:02;;;;;;;1.85;1.30;;;;;;;;;;4993986;28;20228;-45
2023/05/23 08:42:50;;;;;;;2.33;1.50;;;;;;;;;;4993462;28;20238;-45
2023/05/23 08:45:18;;;;;;;2.20;1.50;;;;;;;;;;4975974;28;20229;-48
2023/05/23 08:47:47;;;;;;;3.83;1.70;;;;;;;;;;4993631;28;20230;-46
2023/05/23 08:50:17;;;;;;;2.55;1.40;;;;;;;;;;4975809;28;20729;-47
2023/05/23 08:52:55;;;;;;;3.03;1.90;;;;;;;;;;4976342;28;20233;-46
2023/05/23 08:55:27;;;;;;;2.72;1.55;;;;;;;;;;4975530;28;20328;-48
2023/05/23 08:58:02;;;;;;;3.63;1.38;;;;;;;;;;4976379;28;20241;-45
2023/05/23 09:00:41;;;;;;;2.80;1.60;;;;;;;;;;4976241;28;20230;-47
2023/05/23 09:03:11;;;;;;;1.48;1.17;;;;;;;;;;4975993;28;20237;-47
2023/05/23 09:05:52;;;;;;;1.83;1.35;;;;;;;;;;4975805;28;20580;-45
2023/05/23 09:08:23;;;;;;;2.30;1.35;;;;;;;;;;4975301;28;20229;-45
2023/05/23 09:10:55;;;;;;;2.10;1.50;;;;;;;;;;4976058;28;20233;-45
2023/05/23 09:13:24;;;;;;;3.92;2.00;;;;;;;;;;4975797;28;20225;-44
2023/05/23 09:16:04;;;;;;;2.45;1.48;;;;;;;;;;4975845;28;20687;-45
2023/05/23 09:18:40;;;;;;;3.05;1.55;;;;;;;;;;4975466;28;20718;-45
2023/05/23 09:21:10;;;;;;;1.88;1.42;;;;;;;;;;4975275;28;20236;-45
2023/05/23 09:23:44;;;;;;;4.03;1.83;;;;;;;;;;4975678;28;20728;-45
2023/05/23 09:26:12;;;;;;;2.95;1.55;;;;;;;;;;4975766;28;20702;-46
2023/05/23 09:28:41;;;;;;;2.50;1.45;;;;;;;;;;4975600;28;20214;-46
2023/05/23 09:31:09;;;;;;;2.80;1.77;;;;;;;;;;4975697;28;20230;-46
2023/05/23 09:33:48;;;;;;;3.13;1.85;;;;;;;;;;4975242;28;20210;-46
2023/05/23 09:36:18;;;;;;;6.20;1.85;;;;;;;;;;4975600;28;20198;-45
2023/05/23 09:38:47;;;;;;;2.17;1.67;;;;;;;;;;4976074;28;20213;-45
2023/05/23 09:41:14;;;;;;;2.65;1.85;;;;;;;;;;4976268;28;20206;-46
2023/05/23 09:43:53;;;;;;;3.90;1.92;;;;;;;;;;4975492;28;20222;-45
2023/05/23 09:46:21;;;;;;;3.40;1.65;;;;;;;;;;4993388;28;20569;-45
2023/05/23 09:48:50;;;;;;;6.93;1.63;;;;;;;;;;4993346;28;20549;-46
2023/05/23 09:51:20;;;;;;;4.10;1.73;;;;;;;;;;4976189;28;20228;-46
2023/05/23 09:53:48;;;;;;;3.25;1.60;;;;;;;;;;4975870;28;20252;-45
2023/05/23 09:56:16;;;;;;;2.92;1.80;;;;;;;;;;4992800;28;20236;-46
2023/05/23 09:58:48;;;;;;;3.08;1.55;;;;;;;;;;4992825;28;20256;-45
2023/05/23 10:01:16;;;;;;;6.38;1.75;;;;;;;;;;4993531;28;20201;-46
2023/05/23 10:03:56;;;;;;;3.67;1.80;;;;;;;;;;4993242;28;20261;-46
2023/05/23 10:06:53;;;;;;;3.28;1.60;;;;;;;;;;4993089;28;20218;-45
2023/05/23 10:09:22;;;;;;;2.58;1.70;;;;;;;;;;4989920;28;20198;-45
2023/05/23 10:12:26;;;;;;;3.78;2.08;;;;;;;;;;4993390;28;20305;-45
2023/05/23 10:14:57;;;;;;;3.00;1.85;;;;;;;;;;4986247;28;20206;-43
2023/05/23 10:17:31;;;;;;;2.35;1.75;;;;;;;;;;4993906;28;20646;-45
2023/05/23 10:20:01;;;;;;;2.05;1.42;;;;;;;;;;4993883;28;20220;-44
2023/05/23 10:22:28;;;;;;;2.30;1.55;;;;;;;;;;4975986;28;20748;-43
2023/05/23 10:24:56;;;;;;;4.10;1.73;;;;;;;;;;4974704;28;20229;-43
2023/05/23 10:27:23;;;;;;;3.25;1.58;;;;;;;;;;4975035;28;20202;-44
2023/05/23 10:29:50;;;;;;;2.50;1.67;;;;;;;;;;4992971;28;20213;-43
2023/05/23 10:32:18;;;;;;;5.07;1.88;;;;;;;;;;4993504;28;20211;-43
2023/05/23 10:34:51;;;;;;;2.72;1.70;;;;;;;;;;4976211;28;20209;-43
2023/05/23 10:37:55;;;;;;;2.60;1.75;;;;;;;;;;4993471;28;20201;-45
2023/05/23 10:40:33;;;;;;;2.90;1.83;;;;;;;;;;4993889;28;20194;-43
2023/05/23 10:43:12;;;;;;;2.38;1.83;;;;;;;;;;5008447;28;20502;-43
2023/05/23 10:45:44;;;;;;;4.00;2.13;;;;;;;;;;4959246;28;20213;-43
2023/05/23 10:48:30;;;;;;;2.97;1.85;;;;;;;;;;4994088;28;20190;-48
2023/05/23 10:51:03;;;;;;;4.05;1.77;;;;;;;;;;4993525;28;20211;-43
2023/05/23 10:53:35;;;;;;;3.05;1.90;;;;;;;;;;4993471;28;20217;-45
2023/05/23 10:56:06;;;;;;;3.35;1.70;;;;;;;;;;4996085;28;20573;-43
2023/05/23 10:58:34;;;;;;;5.07;1.77;;;;;;;;;;4997303;28;20269;-44
2023/05/23 11:01:05;;;;;;;2.78;1.77;;;;;;;;;;4997103;28;20207;-44
2023/05/23 11:03:36;;;;;;;2.65;2.03;;;;;;;;;;4996470;28;20221;-44
2023/05/23 11:06:05;;;;;;;2.40;1.70;;;;;;;;;;4988015;28;20205;-45
2023/05/23 11:08:41;;;;;;;2.95;1.92;;;;;;;;;;4994843;28;20234;-46
2023/05/23 11:11:11;;;;;;;2.40;1.67;;;;;;;;;;4978000;28;20189;-45
2023/05/23 11:13:55;;;;;;;2.97;1.65;;;;;;;;;;4985859;28;20241;-46
2023/05/23 11:16:31;;;;;;;4.10;1.77;;;;;;;;;;4993928;28;20214;-46
2023/05/23 11:19:17;;;;;;;2.67;1.88;;;;;;;;;;4983007;28;20226;-45
2023/05/23 11:21:48;;;;;;;2.58;1.60;;;;;;;;;;4995742;28;20225;-45
2023/05/23 11:24:16;;;;;;;2.85;1.55;;;;;;;;;;4995969;28;20265;-45
2023/05/23 11:27:11;;;;;;;3.35;1.50;;;;;;;;;;5000648;28;20230;-46
2023/05/23 11:29:38;;;;;;;2.05;1.58;;;;;;;;;;5008769;28;20206;-46
2023/05/23 11:32:12;;;;;;;4.43;1.50;;;;;;;;;;4981640;28;20206;-46
2023/05/23 11:34:43;;;;;;;2.55;1.50;;;;;;;;;;4993984;28;20257;-46
2023/05/23 11:37:10;;;;;;;1.67;1.23;;;;;;;;;;4974440;28;20285;-45
2023/05/23 11:39:39;;;;;;;2.58;1.70;;;;;;;;;;4957760;28;20213;-45
2023/05/23 11:42:06;;;;;;;4.18;1.45;;;;;;;;;;4993970;28;20199;-45
2023/05/23 11:44:33;;;;;;;2.35;1.52;;;;;;;;;;4994779;28;20590;-46
2023/05/23 11:47:09;;;;;;;4.95;1.55;;;;;;;;;;4979200;28;20198;-45
2023/05/23 11:49:39;;;;;;;2.47;1.38;;;;;;;;;;4995638;28;20190;-46
2023/05/23 11:52:06;;;;;;;3.40;1.80;;;;;;;;;;4995569;28;20209;-46
2023/05/23 11:54:33;;;;;;;2.13;1.40;;;;;;;;;;5007673;28;20230;-46
2023/05/23 11:57:01;;;;;;;3.25;1.30;;;;;;;;;;4995539;28;20202;-46
2023/05/23 11:59:28;;;;;;;2.88;1.55;;;;;;;;;;4995240;28;20203;-46
2023/05/23 12:01:55;;;;;;;3.75;1.70;;;;;;;;;;4995053;28;20318;-45
2023/05/23 12:04:24;;;;;;;2.97;1.80;;;;;;;;;;4995138;28;20225;-46
2023/05/23 12:06:52;;;;;;;4.28;1.48;;;;;;;;;;4994943;28;20198;-46
2023/05/23 12:09:19;;;;;;;5.13;1.90;;;;;;;;;;4994967;28;20222;-46
2023/05/23 12:11:47;;;;;;;3.35;1.45;;;;;;;;;;5000978;28;20198;-46
2023/05/23 12:14:16;;;;;;;2.60;1.65;;;;;;;;;;5014828;28;20256;-46
2023/05/23 12:16:45;;;;;;;2.33;1.70;;;;;;;;;;5000057;28;20666;-46
2023/05/23 12:19:14;;;;;;;1.80;1.35;;;;;;;;;;4995183;28;20229;-46
2023/05/23 12:21:46;;;;;;;2.63;1.52;;;;;;;;;;4994862;28;20221;-46
2023/05/23 12:24:17;;;;;;;2.17;1.10;;;;;;;;;;4995145;28;20210;-46
2023/05/23 12:26:50;;;;;;;5.18;1.45;;;;;;;;;;4994547;28;20194;-45
2023/05/23 12:29:21;;;;;;;3.47;1.45;;;;;;;;;;4994793;28;20186;-45
2023/05/23 12:31:49;;;;;;;1.98;1.23;;;;;;;;;;4994955;28;20194;-45
2023/05/23 12:34:16;;;;;;;2.97;1.35;;;;;;;;;;4993422;28;20298;-46
2023/05/23 12:36:44;;;;;;;5.75;1.55;;;;;;;;;;4992564;28;20236;-45
2023/05/23 12:39:23;;;;;;;3.28;1.40;;;;;;;;;;4968070;28;20699;-46
2023/05/23 12:41:51;;;;;;;3.30;1.83;;;;;;;;;;4989329;28;20572;-45
2023/05/23 12:44:18;;;;;;;5.47;1.25;;;;;;;;;;4993445;28;20230;-46
2023/05/23 12:46:46;;;;;;;3.33;1.30;;;;;;;;;;4992952;28;20233;-45
2023/05/23 12:49:14;;;;;;;2.72;1.42;;;;;;;;;;4981239;28;20681;-45
2023/05/23 12:51:41;;;;;;;1.92;1.38;;;;;;;;;;4993185;28;20608;-45
2023/05/23 12:54:08;;;;;;;1.90;1.10;;;;;;;;;;4993029;28;20244;-45
2023/05/23 12:56:35;;;;;;;1.75;1.10;;;;;;;;;;4992826;28;20237;-45
2023/05/23 12:59:03;;;;;;;1.42;0.93;;;;;;;;;;5000783;28;20221;-46
2023/05/23 13:01:30;;;;;;;1.52;1.27;;;;;;;;;;4993012;28;20230;-45
2023/05/23 13:03:57;;;;;;;1.85;1.10;;;;;;;;;;4995894;28;20234;-46
2023/05/23 13:06:25;;;;;;;1.40;1.13;;;;;;;;;;4993702;28;20225;-45
2023/05/23 13:08:53;;;;;;;1.20;1.00;;;;;;;;;;5006563;28;20276;-45
2023/05/23 13:11:23;;;;;;;1.52;1.20;;;;;;;;;;5003096;28;20217;-48
2023/05/23 13:13:51;;;;;;;2.05;1.30;;;;;;;;;;5000013;28;20694;-45
2023/05/23 13:16:19;;;;;;;2.63;1.10;;;;;;;;;;5001828;28;20270;-46
2023/05/23 13:18:46;;;;;;;1.77;1.35;;;;;;;;;;5001568;28;20308;-45
2023/05/23 13:21:13;;;;;;;1.55;1.20;;;;;;;;;;5002330;28;20229;-45
2023/05/23 13:23:40;;;;;;;1.63;1.10;;;;;;;;;;5006713;28;20309;-45
2023/05/23 13:26:07;;;;;;;1.70;1.08;;;;;;;;;;5003702;28;20222;-46
2023/05/23 13:28:34;;;;;;;1.83;1.20;;;;;;;;;;4999187;28;20229;-45
2023/05/23 13:31:02;;;;;;;1.58;1.00;;;;;;;;;;4999591;28;20214;-46
2023/05/23 13:33:29;;;;;;;2.58;1.30;;;;;;;;;;4999269;28;20222;-45
2023/05/23 13:35:57;;;;;;;3.10;1.30;;;;;;;;;;4992626;28;20221;-46
2023/05/23 13:38:26;;;;;;;2.88;1.30;;;;;;;;;;4992573;28;20222;-46
2023/05/23 13:40:53;;;;;;;4.32;1.38;;;;;;;;;;4992573;28;20628;-45
2023/05/23 13:43:20;;;;;;;2.05;1.48;;;;;;;;;;4992710;28;20280;-48
2023/05/23 13:45:48;;;;;;;1.42;1.02;;;;;;;;;;4992290;28;20241;-46
2023/05/23 13:48:15;;;;;;;2.10;1.30;;;;;;;;;;4992824;28;20222;-45
2023/05/23 13:50:42;;;;;;;2.35;1.20;;;;;;;;;;4992550;28;20233;-45
2023/05/23 13:53:14;;;;;;;2.95;1.33;;;;;;;;;;4992294;28;20233;-45
2023/05/23 13:55:41;;;;;;;1.70;1.10;;;;;;;;;;5005262;28;20233;-45
2023/05/23 13:58:08;;;;;;;3.33;1.40;;;;;;;;;;4988855;28;20225;-45
2023/05/23 14:00:36;;;;;;;2.58;1.27;;;;;;;;;;4989978;28;20222;-43
2023/05/23 14:03:03;;;;;;;1.75;1.25;;;;;;;;;;4987156;28;20698;-43
2023/05/23 14:05:31;;;;;;;2.38;1.25;;;;;;;;;;4983724;28;20748;-52
2023/05/23 14:07:58;;;;;;;2.47;1.15;;;;;;;;;;4986314;28;20225;-45
2023/05/23 14:10:25;;;;;;;1.25;1.02;;;;;;;;;;4992917;28;20280;-46
2023/05/23 14:12:53;;;;;;;1.40;1.17;;;;;;;;;;4992831;28;20229;-44
2023/05/23 14:15:20;;;;;;;2.30;1.42;;;;;;;;;;4993017;28;20677;-45
2023/05/23 14:17:47;;;;;;;2.08;1.40;;;;;;;;;;4992558;28;20218;-44
2023/05/23 14:20:14;;;;;;;1.33;1.00;;;;;;;;;;4991507;28;20214;-44
2023/05/23 14:22:42;;;;;;;1.45;1.05;;;;;;;;;;4990569;28;20230;-45
2023/05/23 14:25:09;;;;;;;1.98;1.00;;;;;;;;;;4990283;28;20887;-45
2023/05/23 14:27:36;;;;;;;2.75;1.40;;;;;;;;;;4991854;28;20663;-46
2023/05/23 14:30:04;;;;;;;1.55;1.10;;;;;;;;;;4994770;28;20209;-45
2023/05/23 14:32:37;;;;;;;2.42;1.20;;;;;;;;;;4995078;28;20238;-45
2023/05/23 14:35:05;;;;;;;2.33;1.30;;;;;;;;;;4994022;28;20297;-44
2023/05/23 14:37:33;;;;;;;1.92;1.17;;;;;;;;;;4979487;28;20206;-44
2023/05/23 14:40:00;;;;;;;4.00;1.27;;;;;;;;;;4997099;28;20529;-44
2023/05/23 14:42:27;;;;;;;1.95;1.20;;;;;;;;;;4997002;28;20195;-45
2023/05/23 14:44:54;;;;;;;1.67;1.20;;;;;;;;;;4995992;28;20572;-44
2023/05/23 14:47:22;;;;;;;3.53;1.40;;;;;;;;;;4990646;28;20214;-46
2023/05/23 14:49:49;;;;;;;1.98;1.40;;;;;;;;;;4979071;28;20238;-45
2023/05/23 14:52:17;;;;;;;3.17;1.40;;;;;;;;;;4993894;28;20212;-44
2023/05/23 14:54:44;;;;;;;4.93;1.40;;;;;;;;;;4996657;28;20296;-45
2023/05/23 14:57:12;;;;;;;3.00;1.40;;;;;;;;;;4996056;28;20224;-46
2023/05/23 14:59:39;;;;;;;2.03;1.40;;;;;;;;;;4996612;28;20222;-46
2023/05/23 15:02:07;;;;;;;1.63;1.30;;;;;;;;;;4996596;28;20199;-45